Time;durP1;ratioP1;P1;durP2;ratioP2;P2;SDS_P1;SDS_P2;PMS_P1;PMS_P2;Temp;Humidity;BMP_temperature;BMP_pressure;BME280_temperature;BME280_humidity;BME280_pressure;Samples;Min_cycle;Max_cycle;Signal;HPM_P1;HPM_P2
2022/01/28 00:04:49;;;;;;;;;49.00;35.75;;;;;9.89;100.00;103051.63;5031513;28;45817;-79
2022/01/28 00:07:14;;;;;;;;;44.50;36.25;;;;;9.91;100.00;103052.66;5034409;28;45443;-79
2022/01/28 00:09:40;;;;;;;;;44.50;36.75;;;;;9.88;100.00;103050.72;5034938;28;45458;-79
2022/01/28 00:12:08;;;;;;;;;44.00;37.00;;;;;9.88;100.00;103061.06;5033744;28;45526;-79
2022/01/28 00:14:44;;;;;;;;;46.50;35.00;;;;;9.88;100.00;103070.53;5011285;28;45938;-77
2022/01/28 00:38:50;;;;;;;;;43.75;34.25;;;;;10.08;100.00;103090.31;5035029;28;45494;-79
2022/01/28 00:41:16;;;;;;;;;50.00;39.00;;;;;10.01;100.00;103086.31;5035350;28;45458;-79
2022/01/28 00:43:42;;;;;;;;;40.75;34.00;;;;;10.02;100.00;103089.78;5034162;28;45986;-79
2022/01/28 00:46:08;;;;;;;;;42.50;36.50;;;;;9.99;100.00;103087.84;5034523;28;45323;-79
2022/01/28 00:48:34;;;;;;;;;47.25;37.00;;;;;10.01;100.00;103088.91;5034833;28;45469;-79
2022/01/28 00:50:59;;;;;;;;;41.50;33.50;;;;;10.03;100.00;103092.53;5034707;28;45328;-78
2022/01/28 00:53:25;;;;;;;;;43.25;35.50;;;;;10.01;100.00;103088.91;5035606;28;45311;-78
2022/01/28 00:55:54;;;;;;;;;41.25;34.50;;;;;9.98;100.00;103090.31;5034305;28;45351;-79
2022/01/28 00:58:22;;;;;;;;;36.25;29.25;;;;;9.96;100.00;103100.53;5035039;28;45315;-79
2022/01/28 01:00:47;;;;;;;;;41.25;35.50;;;;;9.98;100.00;103108.44;5034738;28;45599;-78
2022/01/28 01:03:18;;;;;;;;;42.00;33.75;;;;;9.99;100.00;103110.25;5029352;28;45481;-79
2022/01/28 01:05:43;;;;;;;;;42.00;35.25;;;;;9.99;100.00;103103.38;5033757;28;45222;-78
2022/01/28 01:08:09;;;;;;;;;42.75;33.25;;;;;10.01;100.00;103096.66;5032519;28;45386;-81
2022/01/28 01:10:36;;;;;;;;;42.50;35.00;;;;;10.02;100.00;103100.13;5042381;28;45628;-83
2022/01/28 01:13:03;;;;;;;;;40.75;35.25;;;;;10.04;100.00;103115.00;5020768;28;47820;-80
2022/01/28 01:15:34;;;;;;;;;50.00;32.50;;;;;10.06;100.00;103108.28;5021256;28;45975;-79
2022/01/28 01:18:15;;;;;;;;;43.75;34.50;;;;;10.06;100.00;103110.88;5040368;28;45357;-79
2022/01/28 01:23:12;;;;;;;;;33.25;30.00;;;;;10.02;100.00;103116.59;5038006;28;45340;-79
2022/01/28 01:26:08;;;;;;;;;31.50;26.75;;;;;10.05;100.00;103116.81;5037292;28;45401;-80
2022/01/28 01:28:32;;;;;;;;;43.25;33.75;;;;;10.06;100.00;103118.63;5036668;28;45437;-78
2022/01/28 01:31:00;;;;;;;;;35.25;29.75;;;;;10.10;100.00;103129.25;5037862;28;45500;-78
2022/01/28 01:33:30;;;;;;;;;26.25;22.75;;;;;10.09;100.00;103125.78;5037548;28;45403;-79
2022/01/28 01:35:58;;;;;;;;;34.50;27.25;;;;;10.10;100.00;103126.66;5037250;28;45556;-79
2022/01/28 01:38:26;;;;;;;;;39.75;32.75;;;;;10.07;100.00;103122.16;5038103;28;45461;-78
2022/01/28 01:40:57;;;;;;;;;33.75;27.25;;;;;9.98;100.00;103122.28;5037965;28;45492;-79
2022/01/28 01:53:59;;;;;;;;;34.50;28.75;;;;;9.85;100.00;103142.69;5037264;28;45318;-79
2022/01/28 01:56:25;;;;;;;;;34.50;29.50;;;;;9.85;100.00;103148.78;5036966;28;45859;-79
2022/01/28 01:58:51;;;;;;;;;39.00;29.00;;;;;9.86;100.00;103149.69;5037145;28;45332;-80
2022/01/28 02:01:17;;;;;;;;;32.50;23.25;;;;;9.83;100.00;103149.41;5037690;28;45400;-80
2022/01/28 02:03:42;;;;;;;;;37.00;32.50;;;;;9.81;100.00;103149.28;5036921;28;45921;-79
2022/01/28 02:06:08;;;;;;;;;32.25;26.75;;;;;9.83;100.00;103163.28;5036415;28;45391;-79
2022/01/28 02:08:35;;;;;;;;;32.25;30.50;;;;;9.82;100.00;103166.63;5018957;28;45419;-79
2022/01/28 02:11:02;;;;;;;;;31.75;27.75;;;;;9.84;100.00;103169.34;5037580;28;45337;-79
2022/01/28 02:13:35;;;;;;;;;34.75;27.25;;;;;9.86;100.00;103172.97;5036216;28;46149;-79
2022/01/28 02:16:01;;;;;;;;;33.25;28.25;;;;;9.85;100.00;103174.66;5036858;28;45249;-80
2022/01/28 02:18:27;;;;;;;;;38.25;29.50;;;;;9.83;100.00;103175.28;5041805;28;45402;-79
2022/01/28 02:20:56;;;;;;;;;32.75;28.75;;;;;9.77;100.00;103175.69;5019629;28;45553;-80
2022/01/28 02:23:23;;;;;;;;;33.00;28.00;;;;;9.72;100.00;103169.19;5036849;28;46024;-79
2022/01/28 02:25:49;;;;;;;;;32.50;26.75;;;;;9.68;100.00;103170.63;5035955;28;45537;-80
2022/01/28 02:28:19;;;;;;;;;31.75;26.75;;;;;9.66;100.00;103171.28;5018561;28;45349;-79
2022/01/28 02:30:45;;;;;;;;;31.00;28.00;;;;;9.65;100.00;103167.75;5037050;28;45562;-80
2022/01/28 02:33:14;;;;;;;;;31.25;24.75;;;;;9.69;100.00;103168.94;5036409;28;46056;-80
2022/01/28 02:35:42;;;;;;;;;34.25;26.75;;;;;9.68;100.00;103173.22;5035865;28;45953;-79
2022/01/28 02:38:10;;;;;;;;;35.50;29.25;;;;;9.72;100.00;103188.19;5036104;28;45486;-79
2022/01/28 02:40:37;;;;;;;;;35.75;30.50;;;;;9.74;100.00;103185.78;5036468;28;45679;-80
2022/01/28 02:45:48;;;;;;;;;31.00;28.75;;;;;9.73;100.00;103189.13;5036047;28;45525;-80
2022/01/28 02:48:25;;;;;;;;;33.00;28.25;;;;;9.72;100.00;103184.72;5038964;28;45359;-79
2022/01/28 02:51:10;;;;;;;;;35.00;25.50;;;;;9.71;100.00;103186.41;5037180;28;45501;-79
2022/01/28 02:53:44;;;;;;;;;33.50;26.00;;;;;9.73;100.00;103186.53;5037299;28;46723;-79
2022/01/28 02:56:36;;;;;;;;;35.75;27.25;;;;;9.75;100.00;103183.31;5035282;28;46375;-80
2022/01/28 02:58:58;;;;;;;;;32.50;24.00;;;;;9.77;100.00;103188.63;5036158;28;45276;-79
2022/01/28 03:01:24;;;;;;;;;32.25;26.50;;;;;9.78;100.00;103180.06;5036901;28;45503;-80
2022/01/28 03:03:51;;;;;;;;;29.75;27.25;;;;;9.81;100.00;103176.88;5035721;28;46178;-80
2022/01/28 03:06:18;;;;;;;;;36.75;30.00;;;;;9.82;100.00;103178.69;5035620;28;45869;-80
2022/01/28 03:08:56;;;;;;;;;27.00;23.25;;;;;9.84;100.00;103174.50;5036082;28;45350;-80
2022/01/28 03:14:14;;;;;;;;;32.00;25.50;;;;;9.85;100.00;103160.81;5039330;28;45456;-80
2022/01/28 03:19:27;;;;;;;;;28.75;26.75;;;;;9.82;100.00;103153.69;5016768;28;45265;-80
2022/01/28 03:21:57;;;;;;;;;30.75;24.50;;;;;9.78;100.00;103156.78;5016812;28;45593;-80
2022/01/28 03:24:27;;;;;;;;;30.50;24.25;;;;;9.75;100.00;103149.66;5018287;28;45432;-80
2022/01/28 03:27:00;;;;;;;;;30.75;27.50;;;;;9.73;100.00;103150.31;5036082;28;45451;-80
2022/01/28 03:29:26;;;;;;;;;29.25;26.00;;;;;9.73;100.00;103165.84;5036437;28;45475;-80
2022/01/28 03:31:52;;;;;;;;;33.25;25.25;;;;;9.75;100.00;103161.72;5036250;28;45241;-80
2022/01/28 03:34:17;;;;;;;;;26.50;24.00;;;;;9.75;100.00;103165.19;5017567;28;47372;-80
2022/01/28 03:36:43;;;;;;;;;34.25;29.00;;;;;9.73;100.00;103161.56;5035548;28;45339;-80
2022/01/28 03:39:10;;;;;;;;;33.75;27.00;;;;;9.74;100.00;103165.06;5035932;28;45351;-80
2022/01/28 03:41:36;;;;;;;;;42.50;28.75;;;;;9.73;100.00;103171.91;5035729;28;45379;-80
2022/01/28 03:44:02;;;;;;;;;30.50;27.00;;;;;9.74;100.00;103167.66;5037899;28;45485;-80
2022/01/28 03:46:29;;;;;;;;;34.50;31.00;;;;;9.75;100.00;103161.72;5018783;28;45303;-80
2022/01/28 03:48:56;;;;;;;;;33.25;25.25;;;;;9.75;100.00;103172.06;5036184;28;45306;-80
2022/01/28 03:51:22;;;;;;;;;35.25;29.75;;;;;9.73;100.00;103171.91;5036134;28;45466;-79
2022/01/28 03:53:48;;;;;;;;;40.00;31.50;;;;;9.74;100.00;103189.25;5034890;28;46012;-79
2022/01/28 03:56:14;;;;;;;;;37.25;25.75;;;;;9.75;100.00;103196.25;5017856;28;45314;-80
2022/01/28 03:58:39;;;;;;;;;26.75;23.75;;;;;9.78;100.00;103207.63;5035481;28;45237;-80
2022/01/28 04:01:12;;;;;;;;;30.25;27.00;;;;;9.77;100.00;103201.56;5009864;28;45523;-80
2022/01/28 04:03:46;;;;;;;;;36.00;28.50;;;;;9.78;100.00;103205.94;5015312;28;45225;-80
2022/01/28 04:11:41;;;;;;;;;40.50;34.25;;;;;9.84;100.00;103210.75;5016673;28;45379;-79
2022/01/28 04:14:12;;;;;;;;;35.00;29.50;;;;;9.86;100.00;103206.59;5021408;28;45283;-79
2022/01/28 04:19:22;;;;;;;;;32.75;26.75;;;;;9.85;100.00;103197.03;5036122;28;45950;-79
2022/01/28 04:21:48;;;;;;;;;27.75;24.25;;;;;9.87;100.00;103203.25;5035507;28;45586;-79
2022/01/28 04:24:13;;;;;;;;;25.25;21.75;;;;;9.86;100.00;103198.84;5016912;28;46634;-79
2022/01/28 04:26:39;;;;;;;;;33.50;28.50;;;;;9.86;100.00;103207.53;5035365;28;45405;-79
2022/01/28 04:29:06;;;;;;;;;29.75;26.00;;;;;9.84;100.00;103209.06;5035591;28;45446;-79
2022/01/28 04:31:32;;;;;;;;;32.75;25.75;;;;;9.85;100.00;103208.31;5035054;28;45533;-79
2022/01/28 04:34:00;;;;;;;;;31.75;29.25;;;;;9.83;100.00;103219.28;5017079;28;47753;-79
2022/01/28 04:36:28;;;;;;;;;36.50;25.00;;;;;9.82;100.00;103210.63;5036189;28;45312;-79
2022/01/28 04:39:03;;;;;;;;;30.00;25.75;;;;;9.82;100.00;103210.63;5036649;28;45376;-81
2022/01/28 04:44:09;;;;;;;;;31.00;27.50;;;;;9.78;100.00;103202.47;5041139;28;46071;-79
2022/01/28 04:47:02;;;;;;;;;33.50;30.50;;;;;9.75;100.00;103211.75;5038914;28;45328;-79
2022/01/28 04:49:40;;;;;;;;;36.50;34.00;;;;;9.77;100.00;103214.50;5038901;28;45359;-80
2022/01/28 04:52:39;;;;;;;;;33.50;27.50;;;;;9.74;100.00;103222.00;5038845;28;45325;-79
2022/01/28 04:58:19;;;;;;;;;33.75;28.75;;;;;9.67;100.00;103217.03;5038372;28;45877;-79
2022/01/28 05:03:32;;;;;;;;;23.00;21.00;;;;;9.63;100.00;103222.72;5038645;28;45597;-79
2022/01/28 05:27:00;;;;;;;;;25.25;20.25;;;;;9.55;100.00;103254.00;5038077;28;45465;-81
2022/01/28 05:29:26;;;;;;;;;28.00;25.25;;;;;9.56;100.00;103253.22;5038404;28;45939;-82
2022/01/28 05:31:52;;;;;;;;;36.00;25.50;;;;;9.59;100.00;103258.66;5037933;28;45248;-81
2022/01/28 05:34:18;;;;;;;;;25.00;19.75;;;;;9.61;100.00;103266.53;5037663;28;45481;-82
2022/01/28 05:36:45;;;;;;;;;30.50;21.00;;;;;9.63;100.00;103261.53;5037235;28;46206;-82
2022/01/28 05:39:11;;;;;;;;;37.00;29.25;;;;;9.64;100.00;103264.25;5038470;28;45341;-82
2022/01/28 05:41:36;;;;;;;;;30.50;24.00;;;;;9.66;100.00;103274.75;5039946;28;45383;-82
2022/01/28 05:44:02;;;;;;;;;33.00;27.25;;;;;9.68;100.00;103268.91;5040244;28;45275;-82
2022/01/28 05:46:29;;;;;;;;;32.25;26.00;;;;;9.71;100.00;103273.44;5037651;28;46251;-82
2022/01/28 05:48:56;;;;;;;;;32.75;27.25;;;;;9.73;100.00;103277.09;5019117;28;45902;-81
2022/01/28 05:51:22;;;;;;;;;32.50;27.25;;;;;9.70;100.00;103275.13;5036288;28;45823;-81
2022/01/28 05:53:48;;;;;;;;;29.50;21.75;;;;;9.73;100.00;103283.16;5037351;28;45276;-81
2022/01/28 05:56:13;;;;;;;;;27.25;21.75;;;;;9.73;100.00;103282.25;5037068;28;46338;-81
2022/01/28 05:58:39;;;;;;;;;31.25;26.50;;;;;9.74;100.00;103282.38;5037368;28;45351;-81
2022/01/28 06:01:05;;;;;;;;;32.50;26.00;;;;;9.75;100.00;103291.97;5037307;28;45331;-82
2022/01/28 06:03:30;;;;;;;;;31.00;22.25;;;;;9.72;100.00;103296.84;5037328;28;45400;-80
2022/01/28 06:05:56;;;;;;;;;29.00;23.75;;;;;9.70;100.00;103301.00;5037053;28;45609;-81
2022/01/28 06:08:21;;;;;;;;;28.25;24.00;;;;;9.68;100.00;103305.13;5042916;28;45438;-82
2022/01/28 06:10:47;;;;;;;;;31.25;22.50;;;;;9.70;100.00;103301.00;5040101;28;45217;-82
2022/01/28 06:13:13;;;;;;;;;31.75;26.25;;;;;9.72;100.00;103288.19;5019564;28;45662;-81
2022/01/28 06:15:41;;;;;;;;;29.75;24.75;;;;;9.78;100.00;103304.25;5036514;28;46183;-81
2022/01/28 06:18:06;;;;;;;;;23.00;19.75;;;;;9.81;100.00;103298.47;5040888;28;45310;-81
2022/01/28 06:20:32;;;;;;;;;26.75;19.75;;;;;9.82;100.00;103298.59;5038117;28;46817;-81
2022/01/28 06:22:58;;;;;;;;;24.50;19.75;;;;;9.84;100.00;103299.63;5037542;28;45267;-81
2022/01/28 06:25:23;;;;;;;;;29.75;21.75;;;;;9.87;100.00;103301.56;5036859;28;46117;-82
2022/01/28 06:27:49;;;;;;;;;20.50;18.00;;;;;9.89;100.00;103308.69;5036912;28;45315;-81
2022/01/28 06:30:16;;;;;;;;;27.75;20.00;;;;;9.90;100.00;103302.75;5037056;28;45324;-83
2022/01/28 06:32:43;;;;;;;;;26.00;21.50;;;;;9.93;100.00;103301.22;5037255;28;45430;-83
2022/01/28 06:35:08;;;;;;;;;30.00;20.75;;;;;9.96;100.00;103301.50;5036493;28;45344;-82
2022/01/28 06:37:36;;;;;;;;;29.75;27.25;;;;;9.94;100.00;103292.69;5043177;28;45200;-82
2022/01/28 06:40:04;;;;;;;;;25.50;22.00;;;;;9.95;100.00;103295.38;5038071;28;45481;-82
2022/01/28 06:42:29;;;;;;;;;31.75;23.25;;;;;9.96;100.00;103297.19;5019045;28;45353;-81
2022/01/28 06:44:55;;;;;;;;;29.00;27.00;;;;;9.97;100.00;103299.03;5036595;28;46127;-81
2022/01/28 06:47:20;;;;;;;;;34.25;29.00;;;;;9.95;100.00;103312.59;5018183;28;45355;-81
2022/01/28 06:49:46;;;;;;;;;33.75;29.25;;;;;9.93;100.00;103301.22;5036515;28;45276;-81
2022/01/28 06:52:11;;;;;;;;;34.75;26.50;;;;;9.91;100.00;103304.56;5036598;28;45185;-81
2022/01/28 06:54:37;;;;;;;;;30.25;27.00;;;;;9.89;100.00;103308.69;5018158;28;46598;-80
2022/01/28 06:57:03;;;;;;;;;35.75;31.75;;;;;9.91;100.00;103316.63;5017910;28;45280;-81
2022/01/28 06:59:28;;;;;;;;;34.75;28.00;;;;;9.89;100.00;103320.75;5036958;28;45435;-81
2022/01/28 07:01:55;;;;;;;;;35.00;27.25;;;;;9.84;100.00;103317.75;5036764;28;45607;-81
2022/01/28 07:04:20;;;;;;;;;40.00;28.50;;;;;9.87;100.00;103322.28;5036454;28;45940;-81
2022/01/28 07:06:46;;;;;;;;;35.25;29.50;;;;;9.86;100.00;103321.38;5023000;28;45362;-81
2022/01/28 07:09:12;;;;;;;;;30.50;26.75;;;;;9.88;100.00;103324.09;5030205;28;45360;-81
2022/01/28 07:11:38;;;;;;;;;30.75;26.25;;;;;9.86;100.00;103315.28;5024993;28;45439;-81
2022/01/28 07:14:04;;;;;;;;;36.25;28.50;;;;;9.86;100.00;103320.47;5022297;28;45466;-80
2022/01/28 07:16:30;;;;;;;;;29.75;27.75;;;;;9.87;100.00;103324.88;5036137;28;45913;-80
2022/01/28 07:18:56;;;;;;;;;39.25;31.25;;;;;9.86;100.00;103329.16;5036555;28;45430;-80
2022/01/28 07:21:22;;;;;;;;;30.50;24.25;;;;;9.81;100.00;103330.41;5040891;28;45336;-79
2022/01/28 07:23:47;;;;;;;;;42.00;30.25;;;;;9.82;100.00;103339.09;5023628;28;45299;-78
2022/01/28 07:26:13;;;;;;;;;33.50;27.25;;;;;9.81;100.00;103348.50;5035307;28;45477;-78
2022/01/28 07:28:41;;;;;;;;;24.75;22.25;;;;;9.76;100.00;103344.63;5041647;28;45314;-78
2022/01/28 07:31:09;;;;;;;;;38.25;32.25;;;;;9.70;100.00;103345.00;5018373;28;45371;-83
2022/01/28 07:33:35;;;;;;;;;33.75;24.50;;;;;9.67;100.00;103348.94;5033128;28;45466;-82
2022/01/28 07:36:01;;;;;;;;;32.25;30.50;;;;;9.64;100.00;103349.59;5024355;28;45254;-80
2022/01/28 07:38:26;;;;;;;;;30.75;27.00;;;;;9.66;100.00;103357.50;5017851;28;45350;-81
2022/01/28 07:40:52;;;;;;;;;35.50;27.50;;;;;9.64;100.00;103359.94;5035954;28;45242;-78
2022/01/28 07:43:18;;;;;;;;;32.50;27.50;;;;;9.58;100.00;103359.41;5015545;28;45245;-78
2022/01/28 07:45:43;;;;;;;;;36.00;31.25;;;;;9.53;100.00;103364.16;5035341;28;45285;-77
2022/01/28 07:48:09;;;;;;;;;26.00;17.25;;;;;9.48;100.00;103368.00;5033748;28;45350;-77
2022/01/28 07:50:35;;;;;;;;;31.50;28.50;;;;;9.48;100.00;103377.44;5025924;28;45616;-79
2022/01/28 07:53:03;;;;;;;;;28.75;25.00;;;;;9.47;100.00;103376.53;5015276;28;45367;-78
2022/01/28 07:55:29;;;;;;;;;29.75;25.75;;;;;9.47;100.00;103380.78;5015833;28;46010;-78
2022/01/28 07:57:54;;;;;;;;;39.25;29.75;;;;;9.42;100.00;103390.72;5015972;28;45509;-78
2022/01/28 08:00:26;;;;;;;;;31.75;26.75;;;;;9.37;100.00;103386.78;5028736;28;45615;-78
2022/01/28 08:02:51;;;;;;;;;32.75;28.25;;;;;9.35;100.00;103389.25;5017813;28;47771;-77
2022/01/28 08:05:17;;;;;;;;;34.50;25.25;;;;;9.32;100.00;103388.06;5017814;28;45333;-78
2022/01/28 08:07:44;;;;;;;;;32.00;24.50;;;;;9.25;100.00;103392.66;5035482;28;45469;-78
2022/01/28 08:10:10;;;;;;;;;31.00;25.00;;;;;9.24;100.00;103388.25;5034815;28;45462;-77
2022/01/28 08:12:52;;;;;;;;;29.25;21.25;;;;;9.23;100.00;103399.34;5035000;28;45917;-81
2022/01/28 08:15:19;;;;;;;;;34.50;26.75;;;;;9.24;100.00;103401.19;5036969;28;45408;-84
2022/01/28 08:17:45;;;;;;;;;39.50;28.25;;;;;9.24;100.00;103400.28;5038199;28;45374;-79
2022/01/28 08:20:12;;;;;;;;;33.75;26.50;;;;;9.24;100.00;103402.88;5038104;28;45593;-79
2022/01/28 08:22:50;;;;;;;;;31.75;26.75;;;;;9.24;100.00;103401.19;5019040;28;45567;-80
2022/01/28 08:25:17;;;;;;;;;39.00;28.50;;;;;9.24;100.00;103408.94;5038265;28;45372;-79
2022/01/28 08:27:47;;;;;;;;;38.00;28.00;;;;;9.29;100.00;103409.34;5038905;28;45397;-79
2022/01/28 08:30:15;;;;;;;;;34.00;23.75;;;;;9.28;100.00;103413.63;5038911;28;45481;-78
2022/01/28 08:32:41;;;;;;;;;29.25;26.00;;;;;9.27;100.00;103411.81;5040247;28;45486;-80
2022/01/28 08:35:07;;;;;;;;;28.50;25.00;;;;;9.24;100.00;103418.38;5039033;28;45344;-78
2022/01/28 08:37:33;;;;;;;;;29.50;25.00;;;;;9.26;100.00;103427.19;5038635;28;45353;-78
2022/01/28 08:39:59;;;;;;;;;26.75;24.75;;;;;9.23;100.00;103432.06;5037437;28;45511;-75
2022/01/28 08:42:25;;;;;;;;;27.50;23.50;;;;;9.22;100.00;103438.94;5038397;28;45466;-80
2022/01/28 08:44:51;;;;;;;;;25.00;21.25;;;;;9.26;100.00;103447.88;5038509;28;45276;-80
2022/01/28 08:47:17;;;;;;;;;32.75;25.25;;;;;9.29;100.00;103450.72;5037888;28;45224;-80
2022/01/28 08:49:42;;;;;;;;;24.50;19.25;;;;;9.32;100.00;103448.44;5038815;28;45265;-80
2022/01/28 08:52:08;;;;;;;;;31.75;25.25;;;;;9.36;100.00;103447.94;5020072;28;46856;-79
2022/01/28 08:54:34;;;;;;;;;28.25;25.50;;;;;9.41;100.00;103458.72;5038300;28;45253;-78
2022/01/28 08:56:59;;;;;;;;;29.25;24.25;;;;;9.44;100.00;103459.00;5038124;28;45300;-78
2022/01/28 08:59:25;;;;;;;;;35.50;28.75;;;;;9.50;100.00;103469.00;5040247;28;45540;-77
2022/01/28 09:01:50;;;;;;;;;28.50;24.25;;;;;9.57;100.00;103476.56;5039975;28;46002;-79
2022/01/28 09:04:16;;;;;;;;;32.75;23.75;;;;;9.61;100.00;103473.47;5037805;28;45352;-79
2022/01/28 09:06:42;;;;;;;;;31.00;26.75;;;;;9.60;100.00;103467.41;5038459;28;45323;-80
2022/01/28 09:09:07;;;;;;;;;32.00;26.50;;;;;9.63;100.00;103469.34;5038461;28;45413;-80
2022/01/28 09:11:52;;;;;;;;;27.00;25.75;;;;;9.68;100.00;103474.94;5038096;28;46360;-77
2022/01/28 09:14:19;;;;;;;;;35.75;27.00;;;;;9.72;100.00;103472.78;5037833;28;45959;-77
2022/01/28 09:16:45;;;;;;;;;35.25;30.75;;;;;9.78;100.00;103476.69;5019967;28;45517;-79
2022/01/28 09:19:11;;;;;;;;;41.50;30.00;;;;;9.80;100.00;103470.00;5038124;28;45204;-77
2022/01/28 09:21:37;;;;;;;;;31.75;29.75;;;;;9.81;100.00;103479.56;5037821;28;45347;-78
2022/01/28 09:24:03;;;;;;;;;25.75;24.25;;;;;9.81;100.00;103469.22;5037697;28;45296;-79
2022/01/28 09:26:29;;;;;;;;;27.00;21.00;;;;;9.84;100.00;103469.47;5037740;28;45276;-77
2022/01/28 09:28:56;;;;;;;;;27.75;23.00;;;;;9.85;100.00;103471.31;5037810;28;45541;-78
2022/01/28 09:31:22;;;;;;;;;32.75;23.50;;;;;9.92;100.00;103473.69;5037772;28;45485;-78
2022/01/28 09:33:47;;;;;;;;;22.50;20.25;;;;;9.93;100.00;103472.94;5038342;28;45374;-79
2022/01/28 09:36:13;;;;;;;;;21.00;20.75;;;;;9.97;100.00;103474.13;5035023;28;45513;-79
2022/01/28 09:38:39;;;;;;;;;28.50;22.00;;;;;9.97;100.00;103462.06;5030276;28;45443;-79
2022/01/28 09:41:06;;;;;;;;;25.75;21.00;;;;;10.00;100.00;103469.19;5017889;28;45444;-77
2022/01/28 09:43:33;;;;;;;;;24.50;21.50;;;;;10.04;100.00;103468.72;5033050;28;45923;-79
2022/01/28 09:45:58;;;;;;;;;24.50;21.25;;;;;10.03;100.00;103459.13;5039913;28;45230;-78
2022/01/28 09:48:24;;;;;;;;;24.25;20.00;;;;;10.05;100.00;103468.84;5042680;28;45390;-78
2022/01/28 09:50:50;;;;;;;;;22.25;20.25;;;;;10.07;100.00;103456.94;5034229;28;46173;-77
2022/01/28 09:53:20;;;;;;;;;27.25;21.75;;;;;10.09;100.00;103459.69;5036781;28;45473;-77
2022/01/28 09:55:47;;;;;;;;;26.50;21.00;;;;;10.11;100.00;103468.47;5032947;28;45497;-79
2022/01/28 09:58:14;;;;;;;;;29.75;22.50;;;;;10.11;100.00;103468.47;5036317;28;45435;-79
2022/01/28 10:00:40;;;;;;;;;24.25;20.00;;;;;10.13;100.00;103466.94;5038638;28;45418;-79
2022/01/28 10:03:10;;;;;;;;;25.00;19.25;;;;;10.17;100.00;103474.22;5036372;28;45945;-78
2022/01/28 10:05:38;;;;;;;;;29.25;21.25;;;;;10.20;100.00;103469.28;5036466;28;45521;-79
2022/01/28 10:08:12;;;;;;;;;23.75;22.00;;;;;10.23;100.00;103469.56;5033614;28;45412;-78
2022/01/28 10:10:42;;;;;;;;;33.50;23.25;;;;;10.26;100.00;103466.34;5033078;28;45497;-77
2022/01/28 10:13:15;;;;;;;;;27.50;22.50;;;;;10.28;100.00;103469.09;5046238;28;46871;-80
2022/01/28 10:15:58;;;;;;;;;24.75;20.50;;;;;10.31;100.00;103469.38;5055532;28;45394;-78
2022/01/28 10:18:44;;;;;;;;;32.25;26.75;;;;;10.34;100.00;103474.81;5039828;28;45459;-76
2022/01/28 10:21:17;;;;;;;;;27.00;24.00;;;;;10.38;100.00;103475.25;5036379;28;45553;-79
2022/01/28 10:24:14;;;;;;;;;31.75;29.00;;;;;10.41;100.00;103474.63;5031958;28;45275;-79
2022/01/28 10:26:47;;;;;;;;;30.00;27.25;;;;;10.42;100.00;103476.41;5026071;28;45384;-77
2022/01/28 10:29:30;;;;;;;;;33.50;23.75;;;;;10.47;100.00;103482.03;5038792;28;45526;-80
2022/01/28 10:32:05;;;;;;;;;29.75;26.00;;;;;10.45;100.00;103481.88;5037693;28;45348;-80
2022/01/28 10:34:31;;;;;;;;;30.75;25.00;;;;;10.47;100.00;103480.34;5018174;28;45909;-79
2022/01/28 10:37:18;;;;;;;;;31.75;25.00;;;;;10.49;100.00;103486.56;5017774;28;45423;-80
2022/01/28 10:39:53;;;;;;;;;32.50;25.00;;;;;10.50;100.00;103496.16;5035018;28;45388;-79
2022/01/28 10:42:48;;;;;;;;;30.75;23.75;;;;;10.48;100.00;103505.47;5050117;28;45888;-80
2022/01/28 10:45:17;;;;;;;;;30.25;25.75;;;;;10.50;100.00;103501.34;5031872;28;47143;-81
2022/01/28 10:47:54;;;;;;;;;29.50;24.75;;;;;10.51;100.00;103507.41;5062231;28;45447;-78
2022/01/28 10:50:38;;;;;;;;;30.75;25.25;;;;;10.52;100.00;103502.38;5041609;28;45327;-78
2022/01/28 10:53:13;;;;;;;;;26.25;22.50;;;;;10.54;100.00;103497.34;5035235;28;46235;-81
2022/01/28 10:55:48;;;;;;;;;24.25;22.50;;;;;10.56;100.00;103500.03;5019283;28;45512;-79
2022/01/28 10:58:19;;;;;;;;;32.50;25.25;;;;;10.52;100.00;103496.28;5013729;28;45314;-79
2022/01/28 11:00:48;;;;;;;;;26.50;20.50;;;;;10.50;100.00;103503.00;5021616;28;45365;-81
2022/01/28 11:03:16;;;;;;;;;29.25;25.75;;;;;10.50;100.00;103497.81;5022391;28;46459;-79
2022/01/28 11:05:45;;;;;;;;;38.00;26.25;;;;;10.51;100.00;103508.34;5037233;28;45927;-77
2022/01/28 11:08:13;;;;;;;;;32.75;22.50;;;;;10.50;100.00;103509.09;5036371;28;45353;-81
2022/01/28 11:10:40;;;;;;;;;27.75;24.25;;;;;10.46;100.00;103507.00;5036960;28;45473;-80
2022/01/28 11:13:09;;;;;;;;;32.25;22.25;;;;;10.43;100.00;103504.13;5036449;28;45382;-82
2022/01/28 11:15:35;;;;;;;;;32.50;25.00;;;;;10.43;100.00;103500.66;5036573;28;45834;-79
2022/01/28 11:18:04;;;;;;;;;30.50;24.75;;;;;10.44;100.00;103492.09;5052487;28;45451;-80
2022/01/28 11:20:50;;;;;;;;;32.00;24.50;;;;;10.48;100.00;103494.19;5035651;28;45438;-81
2022/01/28 11:23:45;;;;;;;;;30.75;22.00;;;;;10.48;100.00;103486.41;5036053;28;45585;-80
2022/01/28 11:26:35;;;;;;;;;25.50;19.50;;;;;10.53;100.00;103487.75;5038934;28;45492;-81
2022/01/28 11:29:11;;;;;;;;;30.75;23.75;;;;;10.59;100.00;103489.97;5037565;28;45219;-80
2022/01/28 11:31:45;;;;;;;;;26.50;25.25;;;;;10.60;100.00;103478.84;5037400;28;45453;-81
2022/01/28 11:34:30;;;;;;;;;28.25;23.25;;;;;10.62;100.00;103480.78;5036731;28;45910;-80
2022/01/28 11:37:02;;;;;;;;;27.75;22.25;;;;;10.63;100.00;103477.41;5036313;28;45751;-80
2022/01/28 11:39:38;;;;;;;;;26.75;22.50;;;;;10.63;100.00;103477.41;5052091;28;45368;-81
2022/01/28 11:42:13;;;;;;;;;23.75;18.75;;;;;10.62;100.00;103466.94;5051991;28;45522;-81
2022/01/28 11:44:50;;;;;;;;;23.25;22.25;;;;;10.64;100.00;103458.50;5036426;28;45483;-82
2022/01/28 11:47:23;;;;;;;;;21.75;20.00;;;;;10.66;100.00;103448.25;5036006;28;45892;-81
2022/01/28 11:49:54;;;;;;;;;24.25;22.25;;;;;10.67;100.00;103457.84;5035953;28;45502;-79
2022/01/28 11:52:21;;;;;;;;;22.50;21.00;;;;;10.67;100.00;103461.38;5036741;28;45381;-79
2022/01/28 11:58:52;;;;;;;;;23.50;21.25;;;;;10.69;100.00;103448.53;5017480;28;45456;-80
2022/01/28 12:01:39;;;;;;;;;22.25;21.00;;;;;10.73;100.00;103436.75;5032087;28;45470;-81
2022/01/28 12:04:34;;;;;;;;;26.25;23.00;;;;;10.77;100.00;103444.03;5034229;28;45337;-80
2022/01/28 12:07:18;;;;;;;;;28.00;22.00;;;;;10.74;100.00;103429.13;5034983;28;45502;-80
2022/01/28 12:09:52;;;;;;;;;20.75;18.75;;;;;10.73;100.00;103423.78;5035584;28;45771;-81
2022/01/28 12:12:45;;;;;;;;;20.75;18.75;;;;;10.68;100.00;103426.91;5035386;28;45355;-80
2022/01/28 12:18:45;;;;;;;;;23.25;19.00;;;;;10.69;100.00;103430.41;4961550;28;45958;-80
2022/01/28 12:21:27;;;;;;;;;26.00;22.00;;;;;10.67;100.00;103419.91;4952082;28;45481;-80
2022/01/28 12:24:15;;;;;;;;;23.00;20.50;;;;;10.72;100.00;103415.13;5033526;28;45417;-81
2022/01/28 12:27:07;;;;;;;;;25.00;20.75;;;;;10.74;100.00;103392.84;5038309;28;45429;-76
2022/01/28 12:29:42;;;;;;;;;23.25;16.75;;;;;10.77;100.00;103390.50;5031637;28;47557;-85
2022/01/28 12:32:07;;;;;;;;;22.00;17.75;;;;;10.76;100.00;103380.00;5047117;28;45311;-84
2022/01/28 12:34:34;;;;;;;;;21.25;17.50;;;;;10.80;100.00;103401.13;5047590;28;45368;-81
2022/01/28 12:37:03;;;;;;;;;21.00;16.50;;;;;10.77;100.00;103395.69;5019707;28;45388;-81
2022/01/28 12:39:44;;;;;;;;;19.50;15.50;;;;;10.80;100.00;103411.50;5038431;28;45225;-84
2022/01/28 12:42:23;;;;;;;;;20.75;18.00;;;;;10.73;100.00;103396.22;5017073;28;45506;-78
2022/01/28 12:44:56;;;;;;;;;22.00;19.25;;;;;10.70;100.00;103401.13;5024240;28;45335;-77
2022/01/28 12:47:31;;;;;;;;;25.00;21.00;;;;;10.63;100.00;103402.28;5026140;28;45448;-82
2022/01/28 12:50:03;;;;;;;;;24.50;19.75;;;;;10.67;100.00;103406.97;5038144;28;46626;-82